ETH861 HAAB-FCBB

Flight info

Callsign ETH861
Flight time 3h 45m
Altitude 36000
Route ETGOM1A ETGOM UL432 PATAR UN553 NALOS UT136 BUN UH1 KGI UB535 UDRID KIRGA1M
Aircraft B38M/M-SDE1FGHILORVWXY/HB1

Departure

Time 2026-04-07 18:06
Airport Addis Ababa Bole International Airport (HAAB)

Arrival

Time 2026-04-07 21:51
Airport Maya-Maya International Airport (FCBB)
Time Latitude Longitude Altitude Speed Heading
2026-04-07 18:03 8.97461 38.78452 7624 ft 18 kts 253°
2026-04-07 18:03 8.97427 38.78336 7624 ft 17 kts 254°
2026-04-07 18:03 8.97381 38.78280 7624 ft 9 kts 186°
2026-04-07 18:04 8.97327 38.78303 7623 ft 9 kts 143°
2026-04-07 18:04 8.97276 38.78342 7622 ft 10 kts 142°
2026-04-07 18:04 8.97241 38.78392 7622 ft 8 kts 89°
2026-04-07 18:04 8.97257 38.78448 7622 ft 18 kts 73°
2026-04-07 18:05 8.97358 38.78790 7623 ft 82 kts 73°
2026-04-07 18:05 8.97577 38.79532 7622 ft 137 kts 73°
2026-04-07 18:05 8.97893 38.80595 7628 ft 181 kts 73°
2026-04-07 18:05 8.98258 38.81924 7972 ft 203 kts 75°
2026-04-07 18:06 8.98584 38.83301 8822 ft 201 kts 75°
2026-04-07 18:06 8.98965 38.84639 9543 ft 204 kts 74°
2026-04-07 18:06 8.99384 38.86123 9714 ft 233 kts 75°
2026-04-07 18:06 8.99847 38.87756 10231 ft 247 kts 74°
2026-04-07 18:07 9.00174 38.89437 11004 ft 245 kts 94°
2026-04-07 18:07 8.99622 38.91060 11615 ft 250 kts 128°
2026-04-07 18:07 8.98240 38.92128 12280 ft 256 kts 156°
2026-04-07 18:07 8.96472 38.92500 12856 ft 267 kts 182°
2026-04-07 18:08 8.94725 38.91920 13562 ft 270 kts 214°
2026-04-07 18:08 8.93516 38.90474 14147 ft 273 kts 247°
2026-04-07 18:08 8.92884 38.88655 14697 ft 278 kts 252°
2026-04-07 18:08 8.91952 38.86923 15233 ft 282 kts 231°
2026-04-07 18:09 8.90761 38.85338 15792 ft 288 kts 233°
2026-04-07 18:09 8.89282 38.83913 16048 ft 302 kts 204°
2026-04-07 18:09 8.87273 38.83346 16551 ft 305 kts 190°
2026-04-07 18:09 8.85176 38.82718 16787 ft 324 kts 198°
2026-04-07 18:10 8.82991 38.81941 16968 ft 343 kts 198°
2026-04-07 18:10 8.80670 38.81131 17131 ft 362 kts 198°
2026-04-07 18:10 8.78220 38.80294 17251 ft 382 kts 198°
2026-04-07 18:10 8.75636 38.79417 17433 ft 400 kts 198°
2026-04-07 18:11 8.72964 38.78510 17797 ft 411 kts 197°
2026-04-07 18:11 8.70247 38.77587 18484 ft 412 kts 198°
2026-04-07 18:11 8.67513 38.76660 18999 ft 417 kts 197°
2026-04-07 18:11 8.64763 38.75728 19588 ft 418 kts 197°
2026-04-07 18:12 8.61999 38.74791 20102 ft 421 kts 197°
2026-04-07 18:12 8.59215 38.73853 20698 ft 422 kts 197°
2026-04-07 18:12 8.56421 38.72908 21228 ft 425 kts 197°
2026-04-07 18:12 8.53606 38.71959 21756 ft 427 kts 197°
2026-04-07 18:13 8.50783 38.71006 22264 ft 430 kts 197°
2026-04-07 18:13 8.47934 38.70044 22714 ft 433 kts 197°
2026-04-07 18:13 8.45072 38.69077 23188 ft 434 kts 197°
2026-04-07 18:13 8.42197 38.68105 23575 ft 438 kts 197°
2026-04-07 18:14 8.39305 38.67130 23970 ft 439 kts 197°
2026-04-07 18:14 8.36400 38.66149 24308 ft 442 kts 197°
2026-04-07 18:14 8.33480 38.65163 24651 ft 444 kts 197°
2026-04-07 18:14 8.30544 38.64173 24974 ft 446 kts 197°
2026-04-07 18:15 8.27595 38.63178 25305 ft 448 kts 197°
2026-04-07 18:15 8.24635 38.62179 25624 ft 450 kts 197°
2026-04-07 18:15 8.21659 38.61175 25941 ft 452 kts 197°
2026-04-07 18:15 8.18669 38.60167 26247 ft 454 kts 197°
2026-04-07 18:16 8.15669 38.59155 26542 ft 456 kts 197°
2026-04-07 18:16 8.12647 38.58136 26848 ft 458 kts 197°
2026-04-07 18:16 8.09613 38.57114 27135 ft 460 kts 197°
2026-04-07 18:16 8.06568 38.56087 27418 ft 463 kts 197°
2026-04-07 18:17 8.03510 38.55056 27695 ft 464 kts 197°
2026-04-07 18:17 8.00441 38.54022 27969 ft 467 kts 197°
2026-04-07 18:17 7.97350 38.52982 28249 ft 468 kts 197°
2026-04-07 18:17 7.94255 38.51939 28520 ft 470 kts 197°
2026-04-07 18:18 7.91145 38.50892 28791 ft 472 kts 197°
2026-04-07 18:18 7.88022 38.49841 29062 ft 474 kts 197°
2026-04-07 18:18 7.84884 38.48784 29303 ft 476 kts 197°
2026-04-07 18:18 7.81739 38.47725 29556 ft 478 kts 197°
2026-04-07 18:19 7.78578 38.46661 29863 ft 478 kts 197°
2026-04-07 18:19 7.75422 38.45600 30195 ft 478 kts 197°
2026-04-07 18:19 7.72270 38.44539 30494 ft 477 kts 197°
2026-04-07 18:19 7.69123 38.43481 30767 ft 477 kts 197°
2026-04-07 18:20 7.65975 38.42422 31049 ft 477 kts 197°
2026-04-07 18:20 7.62828 38.41364 31323 ft 476 kts 197°
2026-04-07 18:20 7.59690 38.40309 31591 ft 476 kts 197°
2026-04-07 18:20 7.56594 38.39268 31850 ft 475 kts 197°
2026-04-07 18:21 7.53458 38.38213 32114 ft 475 kts 197°
2026-04-07 18:21 7.50365 38.37067 32375 ft 475 kts 205°
2026-04-07 18:21 7.47601 38.35271 32663 ft 475 kts 220°
2026-04-07 18:21 7.45343 38.32848 32911 ft 475 kts 229°
2026-04-07 18:22 7.43212 38.30293 33090 ft 476 kts 229°
2026-04-07 18:22 7.41096 38.27728 33314 ft 476 kts 229°
2026-04-07 18:22 7.38994 38.25151 33547 ft 476 kts 229°
2026-04-07 18:22 7.36902 38.22574 33788 ft 475 kts 229°
2026-04-07 18:23 7.34815 38.19998 34020 ft 475 kts 229°
2026-04-07 18:23 7.32727 38.17422 34222 ft 474 kts 229°
2026-04-07 18:23 7.30646 38.14854 34415 ft 473 kts 229°
2026-04-07 18:23 7.28566 38.12288 34605 ft 473 kts 229°
2026-04-07 18:24 7.26487 38.09723 34783 ft 472 kts 229°
2026-04-07 18:24 7.24413 38.07167 34965 ft 471 kts 229°
2026-04-07 18:24 7.22339 38.04609 35141 ft 471 kts 229°
2026-04-07 18:24 7.20273 38.02062 35305 ft 470 kts 229°
2026-04-07 18:25 7.18202 37.99509 35484 ft 470 kts 229°
2026-04-07 18:25 7.16137 37.96964 35649 ft 469 kts 229°
2026-04-07 18:25 7.14072 37.94420 35807 ft 469 kts 229°
2026-04-07 18:25 7.12011 37.91881 35985 ft 468 kts 229°
2026-04-07 18:26 7.09953 37.89345 36109 ft 468 kts 229°
2026-04-07 18:26 7.07887 37.86800 36136 ft 470 kts 229°
2026-04-07 18:26 7.03721 37.81670 36125 ft 476 kts 229°
2026-04-07 18:27 6.99518 37.76496 36117 ft 480 kts 229°
2026-04-07 18:27 6.95282 37.71284 36111 ft 482 kts 229°
2026-04-07 18:28 6.91027 37.66048 36106 ft 484 kts 229°
2026-04-07 18:28 6.86473 37.61074 36075 ft 482 kts 212°
2026-04-07 18:29 6.80719 37.57759 36088 ft 481 kts 207°
2026-04-07 18:29 6.74833 37.54550 36091 ft 482 kts 206°
2026-04-07 18:30 6.68912 37.51375 36095 ft 482 kts 206°
2026-04-07 18:30 6.62986 37.48204 36094 ft 483 kts 206°
2026-04-07 18:31 6.57052 37.45030 36092 ft 483 kts 206°
2026-04-07 18:31 6.51111 37.41853 36093 ft 484 kts 206°
2026-04-07 18:32 6.45170 37.38666 36093 ft 484 kts 206°
2026-04-07 18:32 6.39219 37.35496 36097 ft 484 kts 206°
2026-04-07 18:33 6.33274 37.32320 36095 ft 484 kts 206°
2026-04-07 18:33 6.28330 37.29679 36095 ft 484 kts 206°
2026-04-07 18:34 6.22391 37.26505 36113 ft 483 kts 206°
2026-04-07 18:34 6.16456 37.23338 36117 ft 483 kts 206°
2026-04-07 18:35 6.10509 37.20164 36099 ft 484 kts 206°
2026-04-07 18:35 6.04565 37.16992 36098 ft 484 kts 206°
2026-04-07 18:36 5.98615 37.13818 36095 ft 484 kts 206°
2026-04-07 18:36 5.92667 37.10645 36086 ft 484 kts 206°
2026-04-07 18:37 5.86732 37.07449 36079 ft 484 kts 206°
2026-04-07 18:37 5.80779 37.04303 36087 ft 484 kts 206°
2026-04-07 18:38 5.74825 37.01133 36077 ft 484 kts 206°
2026-04-07 18:38 5.68872 36.97961 36069 ft 484 kts 206°
2026-04-07 18:39 5.62917 36.94789 36063 ft 484 kts 206°
2026-04-07 18:39 5.57004 36.91639 36054 ft 484 kts 206°
2026-04-07 18:40 5.51010 36.88447 36061 ft 484 kts 206°
2026-04-07 18:40 5.45055 36.85277 36055 ft 485 kts 206°
2026-04-07 18:41 5.39097 36.82106 36053 ft 485 kts 206°
2026-04-07 18:41 5.33138 36.78935 36046 ft 485 kts 206°
2026-04-07 18:42 5.27216 36.75784 36037 ft 485 kts 206°
2026-04-07 18:42 5.21258 36.72615 36041 ft 485 kts 206°
2026-04-07 18:43 5.15264 36.69428 36036 ft 485 kts 206°
2026-04-07 18:43 5.09298 36.66256 36034 ft 485 kts 206°
2026-04-07 18:44 5.03374 36.63107 36025 ft 485 kts 206°
2026-04-07 18:44 4.97411 36.59938 36019 ft 485 kts 206°
2026-04-07 18:45 4.91453 36.56773 36017 ft 485 kts 206°
2026-04-07 18:45 4.85495 36.53607 36004 ft 484 kts 206°
2026-04-07 18:46 4.79539 36.50444 35998 ft 484 kts 206°
2026-04-07 18:46 4.73593 36.47287 35995 ft 484 kts 206°
2026-04-07 18:47 4.67644 36.44128 35987 ft 484 kts 206°
2026-04-07 18:47 4.61695 36.40970 35983 ft 484 kts 206°
2026-04-07 18:48 4.55750 36.37816 35981 ft 483 kts 206°
2026-04-07 18:48 4.49805 36.34661 35971 ft 483 kts 206°
2026-04-07 18:49 4.43865 36.31510 35968 ft 483 kts 206°
2026-04-07 18:49 4.37922 36.28358 35966 ft 483 kts 206°
2026-04-07 18:50 4.31979 36.25206 35963 ft 483 kts 206°
2026-04-07 18:50 4.26039 36.22056 35960 ft 483 kts 206°
2026-04-07 18:51 4.20098 36.18907 35957 ft 483 kts 206°
2026-04-07 18:51 4.14159 36.15759 35958 ft 483 kts 206°
2026-04-07 18:52 4.08219 36.12611 35960 ft 483 kts 206°
2026-04-07 18:52 4.02280 36.09464 35954 ft 483 kts 206°
2026-04-07 18:53 3.96334 36.06330 35956 ft 483 kts 206°
2026-04-07 18:53 3.90384 36.03194 35954 ft 483 kts 206°
2026-04-07 18:54 3.84443 36.00064 35952 ft 483 kts 206°
2026-04-07 18:54 3.78493 35.96930 35950 ft 483 kts 206°
2026-04-07 18:55 3.72589 35.93819 35950 ft 483 kts 206°
2026-04-07 18:55 3.66606 35.90668 35952 ft 483 kts 206°
2026-04-07 18:56 3.60701 35.87559 35949 ft 483 kts 206°
2026-04-07 18:56 3.54753 35.84428 35948 ft 483 kts 206°
2026-04-07 18:57 3.48812 35.81300 35952 ft 483 kts 206°
2026-04-07 18:57 3.42870 35.78172 35952 ft 482 kts 206°
2026-04-07 18:58 3.36927 35.75045 35940 ft 482 kts 206°
2026-04-07 18:58 3.30987 35.71919 35930 ft 482 kts 206°
2026-04-07 18:59 3.25053 35.68797 35919 ft 482 kts 206°
2026-04-07 18:59 3.19115 35.65674 35912 ft 482 kts 206°
2026-04-07 19:00 3.13179 35.62551 35910 ft 482 kts 206°
2026-04-07 19:00 3.10342 35.60766 35892 ft 485 kts 219°
2026-04-07 19:00 3.07896 35.58431 35916 ft 485 kts 221°
2026-04-07 19:01 3.03004 35.53774 35915 ft 486 kts 221°
2026-04-07 19:02 2.95709 35.46731 35934 ft 486 kts 221°
2026-04-07 19:02 2.90849 35.42033 35947 ft 486 kts 221°
2026-04-07 19:03 2.85987 35.37334 35965 ft 486 kts 221°
2026-04-07 19:03 2.81120 35.32629 35969 ft 486 kts 221°
2026-04-07 19:04 2.76254 35.27928 35971 ft 487 kts 221°
2026-04-07 19:04 2.71382 35.23221 35977 ft 487 kts 221°
2026-04-07 19:05 2.66510 35.18514 35985 ft 487 kts 221°
2026-04-07 19:05 2.61669 35.13838 35994 ft 487 kts 221°
2026-04-07 19:06 2.56792 35.09127 36007 ft 488 kts 221°
2026-04-07 19:06 2.51913 35.04416 36017 ft 488 kts 221°
2026-04-07 19:07 2.47076 34.99654 36021 ft 490 kts 228°
2026-04-07 19:07 2.45205 34.96800 36025 ft 494 kts 244°
2026-04-07 19:07 2.44181 34.93517 36050 ft 498 kts 257°
2026-04-07 19:08 2.42831 34.86716 36047 ft 499 kts 257°
2026-04-07 19:08 2.41547 34.79888 36047 ft 500 kts 257°
2026-04-07 19:09 2.40289 34.73060 36277 ft 495 kts 257°
2026-04-07 19:09 2.39674 34.69711 36705 ft 486 kts 257°
2026-04-07 19:09 2.39064 34.66402 37019 ft 481 kts 257°
2026-04-07 19:09 2.38461 34.63128 37258 ft 478 kts 257°
2026-04-07 19:10 2.37860 34.59865 37475 ft 475 kts 257°
2026-04-07 19:10 2.37263 34.56622 37687 ft 473 kts 257°
2026-04-07 19:10 2.36669 34.53397 37862 ft 471 kts 257°
2026-04-07 19:10 2.36075 34.50178 38032 ft 470 kts 257°
2026-04-07 19:11 2.35483 34.46961 38059 ft 472 kts 257°
2026-04-07 19:11 2.34289 34.40481 38040 ft 476 kts 257°
2026-04-07 19:12 2.33082 34.33938 38037 ft 480 kts 257°
2026-04-07 19:12 2.31869 34.27358 38030 ft 482 kts 257°
2026-04-07 19:13 2.30650 34.20750 38031 ft 484 kts 257°
2026-04-07 19:13 2.29426 34.14112 38033 ft 486 kts 257°
2026-04-07 19:14 2.28198 34.07460 38030 ft 487 kts 257°
2026-04-07 19:14 2.26968 34.00792 38032 ft 488 kts 257°
2026-04-07 19:15 2.25735 33.94117 38031 ft 488 kts 257°
2026-04-07 19:15 2.24501 33.87435 38031 ft 489 kts 257°
2026-04-07 19:16 2.23266 33.80752 38032 ft 489 kts 257°
2026-04-07 19:16 2.22031 33.74066 38031 ft 489 kts 257°
2026-04-07 19:17 2.20802 33.67421 38032 ft 489 kts 257°
2026-04-07 19:17 2.19558 33.60692 38036 ft 489 kts 257°
2026-04-07 19:18 2.18321 33.54007 38033 ft 489 kts 257°
2026-04-07 19:18 2.17093 33.47365 38034 ft 489 kts 257°
2026-04-07 19:19 2.15847 33.40636 38032 ft 489 kts 257°
2026-04-07 19:19 2.14609 33.33946 38029 ft 489 kts 257°
2026-04-07 19:20 2.13371 33.27258 38028 ft 489 kts 257°
2026-04-07 19:20 2.12341 33.21698 38031 ft 490 kts 257°
2026-04-07 19:21 2.11100 33.14998 38031 ft 490 kts 257°
2026-04-07 19:21 2.09858 33.08294 38029 ft 491 kts 257°
2026-04-07 19:22 2.08615 33.01585 38031 ft 491 kts 258°
2026-04-07 19:22 2.07369 32.94864 38031 ft 492 kts 258°
2026-04-07 19:23 2.06123 32.88141 38030 ft 492 kts 258°
2026-04-07 19:23 2.04875 32.81416 38028 ft 492 kts 258°
2026-04-07 19:24 2.03627 32.74687 38034 ft 492 kts 258°
2026-04-07 19:24 2.02378 32.67956 38038 ft 492 kts 258°
2026-04-07 19:25 2.01130 32.61230 38032 ft 492 kts 258°
2026-04-07 19:25 1.99882 32.54508 38033 ft 491 kts 258°
2026-04-07 19:26 1.98636 32.47796 38029 ft 491 kts 258°
2026-04-07 19:26 1.97391 32.41095 38037 ft 490 kts 258°
2026-04-07 19:27 1.96146 32.34390 38037 ft 490 kts 258°
2026-04-07 19:27 1.94900 32.27688 38038 ft 490 kts 258°
2026-04-07 19:28 1.93655 32.20985 38040 ft 491 kts 258°
2026-04-07 19:28 1.92408 32.14280 38035 ft 491 kts 258°
2026-04-07 19:29 1.91278 32.07549 38032 ft 492 kts 264°
2026-04-07 19:29 1.90572 32.00745 38034 ft 492 kts 262°
2026-04-07 19:30 1.89799 31.93990 38037 ft 493 kts 262°
2026-04-07 19:30 1.89011 31.87182 38040 ft 493 kts 262°
2026-04-07 19:31 1.88222 31.80366 38039 ft 494 kts 262°
2026-04-07 19:31 1.87431 31.73546 38036 ft 494 kts 262°
2026-04-07 19:32 1.86640 31.66721 38030 ft 494 kts 262°
2026-04-07 19:32 1.85849 31.59898 38022 ft 494 kts 262°
2026-04-07 19:33 1.85057 31.53074 38029 ft 494 kts 262°
2026-04-07 19:33 1.84265 31.46249 38021 ft 494 kts 262°
2026-04-07 19:34 1.83473 31.39423 38020 ft 494 kts 262°
2026-04-07 19:34 1.82681 31.32606 38013 ft 494 kts 262°
2026-04-07 19:35 1.81888 31.25778 38015 ft 494 kts 262°
2026-04-07 19:35 1.81095 31.18955 38012 ft 494 kts 262°
2026-04-07 19:36 1.80303 31.12134 38018 ft 494 kts 262°
2026-04-07 19:36 1.79509 31.05314 38018 ft 494 kts 262°
2026-04-07 19:37 1.78544 30.98526 38008 ft 492 kts 252°
2026-04-07 19:37 1.76630 30.91970 38024 ft 492 kts 252°
2026-04-07 19:38 1.74730 30.85404 38031 ft 492 kts 252°
2026-04-07 19:38 1.72824 30.78833 38034 ft 492 kts 252°
2026-04-07 19:39 1.70929 30.72309 38036 ft 493 kts 252°
2026-04-07 19:39 1.69019 30.65727 38043 ft 493 kts 252°
2026-04-07 19:40 1.67103 30.59131 38042 ft 494 kts 252°
2026-04-07 19:40 1.65190 30.52542 38044 ft 494 kts 252°
2026-04-07 19:41 1.63275 30.45947 38048 ft 494 kts 252°
2026-04-07 19:41 1.61361 30.39361 38053 ft 494 kts 251°
2026-04-07 19:42 1.59447 30.32771 38054 ft 493 kts 251°
2026-04-07 19:42 1.57536 30.26193 38053 ft 493 kts 251°
2026-04-07 19:43 1.55968 30.19517 38059 ft 494 kts 256°
2026-04-07 19:43 1.54566 30.12805 38053 ft 493 kts 256°
2026-04-07 19:44 1.53129 30.06105 38055 ft 493 kts 256°
2026-04-07 19:44 1.51688 29.99408 38052 ft 493 kts 256°
2026-04-07 19:45 1.50250 29.92720 38050 ft 492 kts 256°
2026-04-07 19:45 1.48811 29.86033 38042 ft 492 kts 256°
2026-04-07 19:46 1.47373 29.79352 38041 ft 492 kts 256°
2026-04-07 19:46 1.45936 29.72674 38033 ft 491 kts 256°
2026-04-07 19:47 1.44500 29.66001 38032 ft 491 kts 256°
2026-04-07 19:47 1.43062 29.59326 38030 ft 491 kts 256°
2026-04-07 19:48 1.41623 29.52656 38023 ft 491 kts 256°
2026-04-07 19:48 1.40184 29.45992 38023 ft 491 kts 256°
2026-04-07 19:49 1.38744 29.39321 38021 ft 491 kts 256°
2026-04-07 19:49 1.37305 29.32656 38015 ft 491 kts 256°
2026-04-07 19:50 1.35866 29.25993 38014 ft 491 kts 256°
2026-04-07 19:50 1.34425 29.19323 38012 ft 491 kts 255°
2026-04-07 19:51 1.32996 29.12704 38017 ft 491 kts 256°
2026-04-07 19:51 1.31554 29.06032 38009 ft 491 kts 255°
2026-04-07 19:52 1.30103 28.99363 38004 ft 491 kts 255°
2026-04-07 19:52 1.28633 28.92697 38010 ft 491 kts 255°
2026-04-07 19:53 1.27165 28.86026 38004 ft 492 kts 255°
2026-04-07 19:53 1.25697 28.79354 38006 ft 492 kts 255°
2026-04-07 19:54 1.24226 28.72675 38000 ft 492 kts 255°
2026-04-07 19:54 1.22756 28.66000 38006 ft 492 kts 255°
2026-04-07 19:55 1.21286 28.59324 38001 ft 492 kts 255°
2026-04-07 19:55 1.19815 28.52643 37993 ft 492 kts 255°
2026-04-07 19:56 1.18342 28.45956 37992 ft 493 kts 255°
2026-04-07 19:56 1.16870 28.39275 37998 ft 493 kts 255°
2026-04-07 19:57 1.15396 28.32583 37989 ft 493 kts 255°
2026-04-07 19:57 1.13923 28.25894 37982 ft 493 kts 255°
2026-04-07 19:58 1.12448 28.19204 37982 ft 493 kts 255°
2026-04-07 19:58 1.10974 28.12513 37981 ft 493 kts 255°
2026-04-07 19:59 1.09498 28.05817 37980 ft 493 kts 255°
2026-04-07 19:59 1.08024 27.99131 37981 ft 493 kts 255°
2026-04-07 20:00 1.06548 27.92433 37974 ft 493 kts 255°
2026-04-07 20:00 1.04336 27.82402 37971 ft 493 kts 255°
2026-04-07 20:01 1.02862 27.75718 37974 ft 493 kts 255°
2026-04-07 20:01 1.01398 27.69078 37970 ft 492 kts 255°
2026-04-07 20:02 0.99924 27.62397 37967 ft 492 kts 255°
2026-04-07 20:02 0.98454 27.55726 37971 ft 492 kts 255°
2026-04-07 20:03 0.97009 27.49050 37974 ft 491 kts 255°
2026-04-07 20:03 0.95562 27.42380 37966 ft 491 kts 255°
2026-04-07 20:04 0.94115 27.35713 37968 ft 490 kts 255°
2026-04-07 20:04 0.92671 27.29057 37960 ft 490 kts 256°
2026-04-07 20:05 0.91228 27.22407 37964 ft 490 kts 255°
2026-04-07 20:05 0.89785 27.15757 37968 ft 489 kts 255°
2026-04-07 20:06 0.88343 27.09115 37968 ft 489 kts 255°
2026-04-07 20:06 0.86903 27.02477 37967 ft 489 kts 255°
2026-04-07 20:07 0.85463 26.95846 37965 ft 489 kts 255°
2026-04-07 20:07 0.84021 26.89203 37966 ft 489 kts 255°
2026-04-07 20:08 0.82825 26.83691 37966 ft 489 kts 255°
2026-04-07 20:08 0.81384 26.77056 37962 ft 489 kts 255°
2026-04-07 20:09 0.79944 26.70422 37966 ft 488 kts 256°
2026-04-07 20:09 0.78504 26.63792 37964 ft 488 kts 256°
2026-04-07 20:10 0.77065 26.57166 37966 ft 488 kts 256°
2026-04-07 20:10 0.75625 26.50538 37966 ft 488 kts 256°
2026-04-07 20:11 0.74187 26.43916 37963 ft 488 kts 256°
2026-04-07 20:11 0.72750 26.37300 37959 ft 487 kts 256°
2026-04-07 20:12 0.71313 26.30685 37962 ft 487 kts 256°
2026-04-07 20:12 0.69876 26.24071 37965 ft 487 kts 256°
2026-04-07 20:13 0.68440 26.17463 37963 ft 487 kts 256°
2026-04-07 20:13 0.66999 26.10903 37961 ft 487 kts 256°
2026-04-07 20:14 0.65536 26.04255 37961 ft 486 kts 256°
2026-04-07 20:14 0.64086 25.97662 37963 ft 486 kts 256°
2026-04-07 20:15 0.62634 25.91062 37958 ft 486 kts 256°
2026-04-07 20:15 0.61194 25.84514 37957 ft 486 kts 256°
2026-04-07 20:16 0.59743 25.77919 37957 ft 486 kts 256°
2026-04-07 20:16 0.58292 25.71327 37956 ft 486 kts 256°
2026-04-07 20:17 0.56841 25.64733 37954 ft 486 kts 256°
2026-04-07 20:17 0.55392 25.58145 37958 ft 486 kts 256°
2026-04-07 20:18 0.53941 25.51553 37953 ft 486 kts 256°
2026-04-07 20:18 0.52491 25.44964 37951 ft 485 kts 256°
2026-04-07 20:19 0.51042 25.38382 37959 ft 485 kts 256°
2026-04-07 20:19 0.49487 25.31826 37951 ft 483 kts 247°
2026-04-07 20:20 0.46599 25.25802 37952 ft 481 kts 242°
2026-04-07 20:20 0.43657 25.19807 37952 ft 481 kts 242°
2026-04-07 20:21 0.40690 25.13817 37953 ft 481 kts 242°
2026-04-07 20:21 0.37723 25.07830 37954 ft 481 kts 242°
2026-04-07 20:22 0.34753 25.01837 37954 ft 481 kts 242°
2026-04-07 20:22 0.31784 24.95846 37955 ft 481 kts 242°
2026-04-07 20:23 0.28817 24.89858 37956 ft 481 kts 242°
2026-04-07 20:23 0.25844 24.83859 37958 ft 482 kts 242°
2026-04-07 20:24 0.22871 24.77861 37959 ft 482 kts 242°
2026-04-07 20:24 0.19898 24.71863 37959 ft 482 kts 242°
2026-04-07 20:25 0.16922 24.65859 37961 ft 482 kts 242°
2026-04-07 20:25 0.13946 24.59852 37962 ft 482 kts 242°
2026-04-07 20:26 0.10959 24.53848 37964 ft 483 kts 242°
2026-04-07 20:26 0.07972 24.47842 37960 ft 483 kts 242°
2026-04-07 20:27 0.04983 24.41834 37963 ft 483 kts 242°
2026-04-07 20:27 0.01991 24.35819 37964 ft 483 kts 242°
2026-04-07 20:28 -0.00978 24.29849 37962 ft 483 kts 242°
2026-04-07 20:28 -0.03968 24.23837 37955 ft 483 kts 242°
2026-04-07 20:29 -0.06979 24.17782 37962 ft 483 kts 242°
2026-04-07 20:29 -0.09950 24.11811 37959 ft 483 kts 242°
2026-04-07 20:30 -0.12941 24.05795 37963 ft 484 kts 242°
2026-04-07 20:30 -0.15936 23.99776 37962 ft 484 kts 242°
2026-04-07 20:31 -0.18929 23.93756 37960 ft 484 kts 242°
2026-04-07 20:31 -0.21920 23.87743 37958 ft 484 kts 243°
2026-04-07 20:32 -0.24915 23.81715 37960 ft 484 kts 243°
2026-04-07 20:32 -0.27909 23.75701 37962 ft 484 kts 243°
2026-04-07 20:33 -0.30904 23.69680 37961 ft 484 kts 243°
2026-04-07 20:33 -0.33876 23.63654 37961 ft 483 kts 244°
2026-04-07 20:34 -0.36878 23.57650 37962 ft 483 kts 243°
2026-04-07 20:34 -0.39878 23.51634 37962 ft 483 kts 243°
2026-04-07 20:35 -0.42870 23.45619 37961 ft 484 kts 243°
2026-04-07 20:35 -0.45879 23.39612 37960 ft 484 kts 243°
2026-04-07 20:36 -0.48917 23.33609 37964 ft 484 kts 243°
2026-04-07 20:36 -0.51956 23.27597 37962 ft 485 kts 243°
2026-04-07 20:37 -0.54993 23.21587 37961 ft 485 kts 243°
2026-04-07 20:37 -0.58017 23.15605 37961 ft 485 kts 243°
2026-04-07 20:38 -0.61061 23.09580 37962 ft 486 kts 243°
2026-04-07 20:38 -0.64108 23.03552 37961 ft 486 kts 243°
2026-04-07 20:39 -0.67159 22.97514 37962 ft 487 kts 243°
2026-04-07 20:39 -0.70214 22.91469 37960 ft 487 kts 243°
2026-04-07 20:40 -0.73269 22.85422 37962 ft 488 kts 243°
2026-04-07 20:40 -0.76328 22.79369 37962 ft 488 kts 243°
2026-04-07 20:41 -0.79389 22.73310 37959 ft 489 kts 243°
2026-04-07 20:41 -0.82453 22.67246 37964 ft 489 kts 243°
2026-04-07 20:42 -0.85517 22.61180 37966 ft 489 kts 243°
2026-04-07 20:42 -0.88583 22.55114 37963 ft 489 kts 243°
2026-04-07 20:43 -0.91647 22.49049 37968 ft 489 kts 243°
2026-04-07 20:43 -0.94712 22.42985 37969 ft 489 kts 243°
2026-04-07 20:44 -0.97779 22.36916 37962 ft 489 kts 243°
2026-04-07 20:44 -1.00846 22.30844 37965 ft 489 kts 243°
2026-04-07 20:45 -1.03912 22.24778 37961 ft 489 kts 243°
2026-04-07 20:45 -1.06977 22.18709 37965 ft 489 kts 243°
2026-04-07 20:46 -1.10021 22.12684 37966 ft 489 kts 243°
2026-04-07 20:46 -1.13087 22.06615 37964 ft 489 kts 243°
2026-04-07 20:47 -1.16153 22.00546 37964 ft 489 kts 243°
2026-04-07 20:47 -1.19219 21.94476 37961 ft 489 kts 243°
2026-04-07 20:48 -1.22285 21.88405 37967 ft 489 kts 243°
2026-04-07 20:48 -1.25352 21.82331 37966 ft 489 kts 243°
2026-04-07 20:49 -1.28418 21.76260 37966 ft 490 kts 243°
2026-04-07 20:49 -1.31485 21.70180 37968 ft 490 kts 243°
2026-04-07 20:50 -1.34473 21.64061 37970 ft 490 kts 243°
2026-04-07 20:50 -1.37468 21.57944 37967 ft 490 kts 243°
2026-04-07 20:51 -1.40446 21.51863 37969 ft 490 kts 243°
2026-04-07 20:51 -1.43444 21.45741 37970 ft 490 kts 243°
2026-04-07 20:52 -1.46441 21.39621 37972 ft 491 kts 243°
2026-04-07 20:52 -1.49441 21.33493 37970 ft 491 kts 243°
2026-04-07 20:53 -1.52441 21.27365 37971 ft 491 kts 243°
2026-04-07 20:53 -1.55441 21.21239 37968 ft 491 kts 243°
2026-04-07 20:54 -1.58441 21.15109 37972 ft 491 kts 243°
2026-04-07 20:54 -1.61444 21.08974 37971 ft 491 kts 243°
2026-04-07 20:55 -1.64443 21.02846 37973 ft 491 kts 243°
2026-04-07 20:55 -1.67446 20.96710 37969 ft 491 kts 243°
2026-04-07 20:56 -1.70446 20.90578 37970 ft 491 kts 243°
2026-04-07 20:56 -1.73447 20.84445 37973 ft 491 kts 243°
2026-04-07 20:57 -1.76447 20.78312 37970 ft 491 kts 243°
2026-04-07 20:57 -1.79446 20.72182 37970 ft 491 kts 243°
2026-04-07 20:58 -1.81940 20.67084 37973 ft 491 kts 243°
2026-04-07 20:58 -1.84941 20.60949 37974 ft 491 kts 243°
2026-04-07 20:59 -1.87939 20.54818 37972 ft 491 kts 243°
2026-04-07 20:59 -1.90937 20.48686 37971 ft 491 kts 243°
2026-04-07 21:00 -1.95432 20.39493 37973 ft 491 kts 243°
2026-04-07 21:01 -1.98428 20.33365 37973 ft 491 kts 243°
2026-04-07 21:01 -2.01423 20.27237 37973 ft 491 kts 243°
2026-04-07 21:02 -2.04418 20.21108 37970 ft 490 kts 243°
2026-04-07 21:02 -2.07412 20.14982 37969 ft 490 kts 243°
2026-04-07 21:03 -2.10404 20.08857 37971 ft 490 kts 244°
2026-04-07 21:03 -2.13376 20.02776 37972 ft 490 kts 244°
2026-04-07 21:04 -2.16366 19.96654 37967 ft 490 kts 244°
2026-04-07 21:04 -2.19358 19.90530 37968 ft 490 kts 244°
2026-04-07 21:05 -2.22372 19.84417 37965 ft 490 kts 243°
2026-04-07 21:05 -2.25395 19.78311 37966 ft 490 kts 243°
2026-04-07 21:06 -2.28417 19.72203 37965 ft 490 kts 243°
2026-04-07 21:06 -2.31435 19.66101 37967 ft 490 kts 243°
2026-04-07 21:07 -2.34455 19.59996 37964 ft 490 kts 243°
2026-04-07 21:07 -2.37478 19.53883 37967 ft 490 kts 243°
2026-04-07 21:08 -2.40496 19.47780 37971 ft 490 kts 243°
2026-04-07 21:08 -2.43518 19.41669 37972 ft 490 kts 243°
2026-04-07 21:09 -2.46537 19.35561 37971 ft 490 kts 243°
2026-04-07 21:09 -2.49555 19.29455 37969 ft 490 kts 243°
2026-04-07 21:10 -2.52575 19.23345 37970 ft 490 kts 243°
2026-04-07 21:10 -2.55592 19.17240 37974 ft 490 kts 243°
2026-04-07 21:11 -2.58611 19.11130 37972 ft 490 kts 243°
2026-04-07 21:11 -2.61630 19.05018 37974 ft 490 kts 243°
2026-04-07 21:12 -2.64650 18.98905 37974 ft 490 kts 243°
2026-04-07 21:12 -2.67672 18.92786 37979 ft 491 kts 243°
2026-04-07 21:13 -2.70693 18.86668 37980 ft 491 kts 243°
2026-04-07 21:13 -2.73721 18.80542 37978 ft 491 kts 243°
2026-04-07 21:14 -2.76753 18.74413 37981 ft 492 kts 243°
2026-04-07 21:14 -2.79786 18.68282 37975 ft 492 kts 243°
2026-04-07 21:15 -2.82820 18.62148 37975 ft 492 kts 243°
2026-04-07 21:15 -2.85851 18.56019 37976 ft 492 kts 243°
2026-04-07 21:16 -2.88884 18.49885 37977 ft 492 kts 243°
2026-04-07 21:16 -2.91914 18.43756 37976 ft 492 kts 243°
2026-04-07 21:17 -2.94925 18.37665 37982 ft 491 kts 243°
2026-04-07 21:17 -2.97953 18.31536 37980 ft 491 kts 243°
2026-04-07 21:18 -3.00978 18.25414 37978 ft 491 kts 243°
2026-04-07 21:18 -3.04004 18.19289 37978 ft 491 kts 243°
2026-04-07 21:19 -3.07023 18.13178 37978 ft 490 kts 243°
2026-04-07 21:19 -3.10045 18.07059 37981 ft 490 kts 243°
2026-04-07 21:20 -3.13064 18.00944 37980 ft 490 kts 243°
2026-04-07 21:20 -3.16079 17.94836 37981 ft 490 kts 243°
2026-04-07 21:21 -3.19095 17.88725 37984 ft 490 kts 243°
2026-04-07 21:21 -3.22113 17.82610 37980 ft 490 kts 243°
2026-04-07 21:22 -3.25130 17.76495 37983 ft 490 kts 243°
2026-04-07 21:22 -3.28148 17.70378 37983 ft 490 kts 243°
2026-04-07 21:23 -3.31167 17.64257 37982 ft 490 kts 243°
2026-04-07 21:23 -3.34185 17.58139 37984 ft 490 kts 243°
2026-04-07 21:24 -3.37205 17.52013 37984 ft 490 kts 243°
2026-04-07 21:24 -3.40217 17.45902 37979 ft 482 kts 243°
2026-04-07 21:25 -3.43126 17.39998 37982 ft 467 kts 243°
2026-04-07 21:25 -3.45966 17.34235 37981 ft 457 kts 243°
2026-04-07 21:26 -3.48743 17.28595 37981 ft 447 kts 243°
2026-04-07 21:26 -3.51459 17.23080 37985 ft 437 kts 243°
2026-04-07 21:27 -3.54118 17.17681 37988 ft 428 kts 243°
2026-04-07 21:27 -3.56766 17.12301 37857 ft 437 kts 243°
2026-04-07 21:27 -3.58127 17.09536 37565 ft 449 kts 243°
2026-04-07 21:28 -3.59520 17.06706 37269 ft 457 kts 243°
2026-04-07 21:28 -3.60932 17.03837 36796 ft 462 kts 243°
2026-04-07 21:28 -3.62364 17.00926 35778 ft 470 kts 243°
2026-04-07 21:28 -3.63818 16.97972 34889 ft 475 kts 243°
2026-04-07 21:29 -3.65281 16.94999 34188 ft 476 kts 243°
2026-04-07 21:29 -3.66726 16.92063 33399 ft 477 kts 243°
2026-04-07 21:29 -3.68213 16.89043 32536 ft 479 kts 243°
2026-04-07 21:29 -3.69667 16.86085 31709 ft 481 kts 243°
2026-04-07 21:30 -3.71144 16.83081 30881 ft 482 kts 243°
2026-04-07 21:30 -3.72629 16.80061 29999 ft 485 kts 243°
2026-04-07 21:30 -3.74119 16.77024 28936 ft 487 kts 243°
2026-04-07 21:30 -3.75621 16.73974 27698 ft 493 kts 243°
2026-04-07 21:31 -3.77143 16.70878 26588 ft 496 kts 243°
2026-04-07 21:31 -3.78658 16.67789 25809 ft 492 kts 243°
2026-04-07 21:31 -3.80161 16.64726 25054 ft 487 kts 243°
2026-04-07 21:31 -3.81657 16.61692 24297 ft 484 kts 243°
2026-04-07 21:32 -3.82906 16.58576 23470 ft 484 kts 253°
2026-04-07 21:32 -3.83811 16.55363 22837 ft 475 kts 252°
2026-04-07 21:32 -3.84741 16.52203 21968 ft 473 kts 253°
2026-04-07 21:32 -3.85651 16.49057 21313 ft 467 kts 253°
2026-04-07 21:33 -3.86545 16.45956 20589 ft 462 kts 253°
2026-04-07 21:33 -3.87429 16.42871 19915 ft 459 kts 253°
2026-04-07 21:33 -3.88304 16.39820 19247 ft 454 kts 253°
2026-04-07 21:33 -3.89175 16.36784 18526 ft 453 kts 253°
2026-04-07 21:34 -3.90040 16.33777 17964 ft 446 kts 253°
2026-04-07 21:34 -3.90887 16.30802 17030 ft 447 kts 253°
2026-04-07 21:34 -3.91741 16.27837 16339 ft 436 kts 253°
2026-04-07 21:34 -3.92566 16.24964 15673 ft 426 kts 253°
2026-04-07 21:35 -3.93365 16.22179 15379 ft 404 kts 253°
2026-04-07 21:35 -3.94119 16.19550 15070 ft 384 kts 253°
2026-04-07 21:35 -3.94839 16.17040 14770 ft 366 kts 253°
2026-04-07 21:35 -3.95526 16.14642 14371 ft 354 kts 253°
2026-04-07 21:36 -3.96202 16.12285 13666 ft 353 kts 253°
2026-04-07 21:36 -3.96885 16.09902 12801 ft 357 kts 253°
2026-04-07 21:36 -3.97580 16.07475 11341 ft 374 kts 253°
2026-04-07 21:36 -3.98292 16.04988 10852 ft 361 kts 253°
2026-04-07 21:37 -3.98959 16.02648 10722 ft 338 kts 253°
2026-04-07 21:37 -3.99579 16.00485 10578 ft 318 kts 253°
2026-04-07 21:37 -4.00172 15.98415 10444 ft 300 kts 252°
2026-04-07 21:37 -4.00725 15.96472 10359 ft 280 kts 252°
2026-04-07 21:38 -4.01242 15.94673 10369 ft 259 kts 252°
2026-04-07 21:38 -4.01736 15.92952 10374 ft 262 kts 252°
2026-04-07 21:38 -4.02259 15.91146 10371 ft 278 kts 252°
2026-04-07 21:38 -4.02799 15.89252 10366 ft 286 kts 253°
2026-04-07 21:39 -4.03350 15.87323 10343 ft 289 kts 253°
2026-04-07 21:39 -4.03904 15.85386 10256 ft 290 kts 253°
2026-04-07 21:39 -4.04459 15.83446 10136 ft 289 kts 253°
2026-04-07 21:39 -4.05013 15.81511 9920 ft 290 kts 253°
2026-04-07 21:40 -4.05568 15.79571 9588 ft 290 kts 253°
2026-04-07 21:40 -4.06124 15.77636 9261 ft 288 kts 253°
2026-04-07 21:40 -4.06671 15.75718 8947 ft 285 kts 253°
2026-04-07 21:40 -4.07212 15.73817 8656 ft 283 kts 253°
2026-04-07 21:41 -4.07753 15.71933 8337 ft 281 kts 253°
2026-04-07 21:41 -4.08288 15.70060 8036 ft 277 kts 253°
2026-04-07 21:41 -4.08817 15.68212 7742 ft 275 kts 253°
2026-04-07 21:41 -4.08995 15.67592 7642 ft 275 kts 253°
2026-04-07 21:42 -4.09358 15.66322 7377 ft 277 kts 253°
2026-04-07 21:42 -4.09895 15.64443 6872 ft 284 kts 253°
2026-04-07 21:42 -4.10328 15.62564 6703 ft 269 kts 263°
2026-04-07 21:43 -4.10468 15.60747 6524 ft 255 kts 265°
2026-04-07 21:43 -4.10602 15.59016 6314 ft 244 kts 264°
2026-04-07 21:43 -4.10736 15.57361 6096 ft 233 kts 264°
2026-04-07 21:43 -4.10866 15.55792 5931 ft 220 kts 264°
2026-04-07 21:44 -4.10993 15.54300 5743 ft 210 kts 264°
2026-04-07 21:44 -4.11115 15.52873 5516 ft 205 kts 264°
2026-04-07 21:44 -4.11237 15.51451 5339 ft 204 kts 264°
2026-04-07 21:44 -4.11358 15.50044 5122 ft 202 kts 264°
2026-04-07 21:45 -4.11479 15.48645 4900 ft 201 kts 264°
2026-04-07 21:45 -4.11599 15.47255 4681 ft 200 kts 264°
2026-04-07 21:45 -4.11717 15.45876 4465 ft 195 kts 264°
2026-04-07 21:45 -4.11794 15.44993 4328 ft 189 kts 264°
2026-04-07 21:46 -4.11906 15.43698 4191 ft 185 kts 264°
2026-04-07 21:46 -4.12016 15.42414 4079 ft 184 kts 264°
2026-04-07 21:46 -4.12176 15.41144 3969 ft 184 kts 251°
2026-04-07 21:46 -4.12807 15.40054 3841 ft 180 kts 233°
2026-04-07 21:47 -4.13543 15.39072 3711 ft 173 kts 232°
2026-04-07 21:47 -4.14226 15.38128 3566 ft 163 kts 233°
2026-04-07 21:47 -4.14909 15.37238 3446 ft 159 kts 231°
2026-04-07 21:47 -4.15616 15.36389 3379 ft 158 kts 230°
2026-04-07 21:48 -4.16321 15.35548 3375 ft 158 kts 230°
2026-04-07 21:48 -4.17032 15.34701 3388 ft 159 kts 230°
2026-04-07 21:48 -4.17743 15.33855 3275 ft 159 kts 230°
2026-04-07 21:48 -4.18459 15.33001 3044 ft 160 kts 230°
2026-04-07 21:49 -4.19173 15.32151 2809 ft 159 kts 230°
2026-04-07 21:49 -4.19887 15.31301 2580 ft 159 kts 230°
2026-04-07 21:49 -4.20590 15.30464 2350 ft 159 kts 230°
2026-04-07 21:49 -4.21304 15.29611 2090 ft 162 kts 230°
2026-04-07 21:50 -4.22040 15.28724 1769 ft 165 kts 230°
2026-04-07 21:50 -4.22749 15.27874 1444 ft 157 kts 230°
2026-04-07 21:50 -4.23435 15.27052 1222 ft 156 kts 229°
2026-04-07 21:50 -4.24154 15.26217 1072 ft 157 kts 230°
2026-04-07 21:51 -4.24780 15.25467 1038 ft 114 kts 230°
2026-04-07 21:51 -4.25136 15.25048 1037 ft 49 kts 229°
2026-04-07 21:51 -4.25299 15.24854 1037 ft 26 kts 231°
2026-04-07 21:51 -4.25419 15.24707 1036 ft 28 kts 231°
2026-04-07 21:52 -4.25536 15.24564 1038 ft 26 kts 230°
2026-04-07 21:52 -4.25637 15.24442 1038 ft 18 kts 230°
2026-04-07 21:52 -4.25720 15.24342 1039 ft 19 kts 230°
2026-04-07 21:52 -4.25823 15.24254 1039 ft 20 kts 198°
2026-04-07 21:53 -4.25943 15.24236 1039 ft 16 kts 150°
2026-04-07 21:53 -4.26001 15.24320 1040 ft 14 kts 64°
2026-04-07 21:53 -4.25938 15.24403 1041 ft 16 kts 52°
2026-04-07 21:53 -4.25876 15.24502 1041 ft 17 kts 89°
2026-04-07 21:54 -4.25953 15.24594 1041 ft 18 kts 139°
2026-04-07 21:54 -4.25985 15.24704 1041 ft 19 kts 71°
2026-04-07 21:54 -4.25902 15.24815 1041 ft 21 kts 50°
2026-04-07 21:54 -4.25805 15.24932 1041 ft 23 kts 50°
2026-04-07 21:55 -4.25734 15.25018 1041 ft 7 kts 50°
2026-04-07 21:55 -4.25707 15.25023 1041 ft 1 kts 313°
2026-04-07 21:55 -4.25707 15.25021 1041 ft 0 kts 280°
2026-04-07 21:55 -4.25718 15.25013 1041 ft 6 kts 215°
2026-04-07 21:56 -4.25779 15.24966 1041 ft 9 kts 226°
2026-04-07 21:56 -4.25804 15.24962 1041 ft 3 kts 142°
2026-04-07 21:56 -4.25828 15.24981 1041 ft 6 kts 137°
2026-04-07 21:56 -4.25840 15.24991 1041 ft 0 kts 139°